| time (UTC) | temp F | wind direction | speed MPH | gust MPH | rain 1hr in | rain 24hr in | rain mn in | humidity % | barometer mb |
| 20260507114035 | 52 | 55 | 0.0 | 0.0 | 0.00 | 0.00 | 0.00 | 89 | 1017.0 |
| 20260507112532 | 53 | 125 | 1.0 | 1.0 | 0.00 | 0.00 | 0.00 | 88 | 1017.0 |
| 20260507111028 | 53 | 307 | 1.0 | 1.0 | 0.00 | 0.00 | 0.00 | 88 | 1016.7 |
| 20260507105524 | 53 | 217 | 2.0 | 2.0 | 0.00 | 0.00 | 0.00 | 89 | 1016.9 |
| 20260507104020 | 53 | 93 | 1.0 | 1.0 | 0.00 | 0.00 | 0.00 | 88 | 1016.7 |
| 20260507102515 | 54 | 75 | 0.0 | 1.0 | 0.00 | 0.00 | 0.00 | 87 | 1016.7 |
| 20260507101015 | 55 | 326 | 1.0 | 2.0 | 0.00 | 0.00 | 0.00 | 85 | 1016.6 |
| 20260507095514 | 56 | 293 | 1.0 | 2.0 | 0.00 | 0.00 | 0.00 | 82 | 1016.4 |
| 20260507094010 | 56 | 89 | 0.0 | 2.0 | 0.00 | 0.00 | 0.00 | 81 | 1016.2 |
| 20260507092508 | 55 | 97 | 1.0 | 1.0 | 0.00 | 0.00 | 0.00 | 84 | 1016.5 |
| 20260507091003 | 56 | 71 | 0.0 | 1.0 | 0.00 | 0.00 | 0.00 | 82 | 1016.3 |
| 20260507085459 | 56 | 33 | 0.0 | 1.0 | 0.00 | 0.00 | 0.00 | 82 | 1016.2 |
| 20260507083955 | 58 | 66 | 0.0 | 1.0 | 0.00 | 0.00 | 0.00 | 79 | 1016.1 |
| 20260507082450 | 57 | 78 | 1.0 | 1.0 | 0.00 | 0.00 | 0.00 | 79 | 1015.9 |
| 20260507080946 | 59 | 60 | 0.0 | 1.0 | 0.00 | 0.00 | 0.00 | 75 | 1015.6 |
| 20260507075446 | 59 | 131 | 1.0 | 2.0 | 0.00 | 0.00 | 0.00 | 74 | 1015.3 |
| 20260507073943 | 59 | 58 | 0.0 | 0.0 | 0.00 | 0.00 | 0.00 | 74 | 1015.3 |
| 20260507072439 | 60 | 69 | 0.0 | 0.0 | 0.00 | 0.00 | 0.00 | 73 | 1015.6 |
| 20260507070936 | 60 | 76 | 0.0 | 1.0 | 0.00 | 0.00 | 0.00 | 74 | 1015.3 |
| 20260507065432 | 60 | 66 | 0.0 | 1.0 | 0.00 | 0.00 | 0.00 | 71 | 1015.2 |
| 20260507063932 | 61 | 58 | 0.0 | 1.0 | 0.00 | 0.00 | 0.00 | 71 | 1015.1 |
| 20260507062428 | 61 | 43 | 0.0 | 0.0 | 0.00 | 0.00 | 0.00 | 70 | 1014.9 |
| 20260507060928 | 62 | 73 | 0.0 | 0.0 | 0.00 | 0.00 | 0.00 | 67 | 1014.7 |
| 20260507055428 | 63 | 70 | 0.0 | 0.0 | 0.00 | 0.00 | 0.00 | 65 | 1014.8 |
| 20260507053924 | 63 | 68 | 0.0 | 0.0 | 0.00 | 0.00 | 0.00 | 66 | 1014.8 |
| 20260507052423 | 64 | 70 | 0.0 | 0.0 | 0.00 | 0.00 | 0.00 | 61 | 1014.7 |
| 20260507050920 | 65 | 56 | 0.0 | 0.0 | 0.00 | 0.00 | 0.00 | 62 | 1014.5 |
| 20260507045416 | 66 | 73 | 0.0 | 0.0 | 0.00 | 0.00 | 0.00 | 59 | 1014.5 |
| 20260507043912 | 67 | 61 | 0.0 | 1.0 | 0.00 | 0.00 | 0.00 | 56 | 1014.6 |
| 20260507042413 | 68 | 118 | 1.0 | 1.0 | 0.00 | 0.00 | 0.00 | 54 | 1014.5 |
| 20260507040908 | 68 | 36 | 1.0 | 1.0 | 0.00 | 0.00 | 0.00 | 53 | 1014.4 |
| 20260507035407 | 69 | 86 | 0.0 | 1.0 | 0.00 | 0.00 | 0.00 | 51 | 1014.5 |
| 20260507033905 | 69 | 47 | 0.0 | 0.0 | 0.00 | 0.00 | 0.00 | 49 | 1014.3 |
| 20260507032402 | 70 | 72 | 0.0 | 0.0 | 0.00 | 0.00 | 0.00 | 48 | 1014.2 |
| 20260507030902 | 71 | 71 | 0.0 | 1.0 | 0.00 | 0.00 | 0.00 | 47 | 1014.2 |
| 20260507025400 | 71 | 59 | 0.0 | 0.0 | 0.00 | 0.00 | 0.00 | 47 | 1014.0 |
| 20260507023856 | 73 | 64 | 0.0 | 0.0 | 0.00 | 0.00 | 0.00 | 45 | 1013.8 |
| 20260507022353 | 74 | 64 | 0.0 | 2.0 | 0.00 | 0.00 | 0.00 | 45 | 1014.1 |
| 20260507020848 | 75 | 71 | 0.0 | 0.0 | 0.00 | 0.00 | 0.00 | 47 | 1013.8 |
| 20260507015346 | 75 | 77 | 0.0 | 0.0 | 0.00 | 0.00 | 0.00 | 47 | 1013.8 |
| 20260507013846 | 77 | 56 | 0.0 | 0.0 | 0.00 | 0.00 | 0.00 | 46 | 1013.7 |
| 20260507012343 | 78 | 65 | 0.0 | 0.0 | 0.00 | 0.00 | 0.00 | 43 | 1013.7 |
| 20260507010843 | 79 | 232 | 2.0 | 2.0 | 0.00 | 0.00 | 0.00 | 40 | 1013.5 |
| 20260507005339 | 78 | 50 | 0.0 | 1.0 | 0.00 | 0.00 | 0.00 | 41 | 1013.6 |
| 20260507003836 | 79 | 75 | 0.0 | 0.0 | 0.00 | 0.00 | 0.00 | 40 | 1013.5 |
| 20260507002334 | 79 | 59 | 1.0 | 1.0 | 0.00 | 0.00 | 0.00 | 38 | 1013.3 |
| 20260507000831 | 79 | 92 | 2.0 | 3.0 | 0.00 | 0.00 | 0.00 | 37 | 1013.3 |
| 20260506235326 | 79 | 88 | 3.0 | 7.0 | 0.00 | 0.00 | 0.00 | 36 | 1013.5 |
| 20260506233823 | 79 | 92 | 5.0 | 11.0 | 0.00 | 0.00 | 0.00 | 37 | 1013.5 |
| 20260506232323 | 80 | 101 | 4.0 | 6.0 | 0.00 | 0.00 | 0.00 | 35 | 1013.5 |
| 20260506230821 | 80 | 80 | 5.0 | 8.0 | 0.00 | 0.00 | 0.00 | 35 | 1013.7 |
| 20260506225317 | 80 | 54 | 2.0 | 8.0 | 0.00 | 0.00 | 0.00 | 35 | 1013.6 |
| 20260506223814 | 81 | 99 | 3.0 | 6.0 | 0.00 | 0.00 | 0.00 | 34 | 1013.8 |
| 20260506222313 | 80 | 82 | 8.0 | 11.0 | 0.00 | 0.00 | 0.00 | 35 | 1013.9 |
| 20260506220813 | 81 | 94 | 4.0 | 10.0 | 0.00 | 0.00 | 0.00 | 36 | 1014.0 |
| 20260506215312 | 81 | 87 | 5.0 | 7.0 | 0.00 | 0.00 | 0.00 | 36 | 1014.1 |
| 20260506213809 | 80 | 100 | 7.0 | 9.0 | 0.00 | 0.00 | 0.00 | 36 | 1014.3 |
| 20260506212306 | 81 | 77 | 2.0 | 6.0 | 0.00 | 0.00 | 0.00 | 34 | 1014.7 |
| 20260506210800 | 80 | 71 | 3.0 | 5.0 | 0.00 | 0.00 | 0.00 | 34 | 1014.7 |
| 20260506205255 | 79 | 74 | 5.0 | 9.0 | 0.00 | 0.00 | 0.00 | 35 | 1014.9 |
| 20260506203753 | 78 | 60 | 5.0 | 7.0 | 0.00 | 0.00 | 0.00 | 37 | 1015.0 |
| 20260506202250 | 78 | 104 | 2.0 | 5.0 | 0.00 | 0.00 | 0.00 | 39 | 1015.0 |
| 20260506200747 | 78 | 82 | 2.0 | 3.0 | 0.00 | 0.00 | 0.00 | 37 | 1015.0 |
| 20260506195247 | 77 | 93 | 2.0 | 5.0 | 0.00 | 0.00 | 0.00 | 38 | 1015.4 |
| 20260506193745 | 77 | 27 | 1.0 | 3.0 | 0.00 | 0.00 | 0.00 | 38 | 1015.7 |
| 20260506192241 | 77 | 29 | 1.0 | 3.0 | 0.00 | 0.00 | 0.00 | 35 | 1015.9 |
| 20260506190737 | 75 | 349 | 2.0 | 2.0 | 0.00 | 0.00 | 0.00 | 37 | 1016.1 |
| 20260506185233 | 76 | 30 | 0.0 | 2.0 | 0.00 | 0.00 | 0.00 | 35 | 1016.4 |
| 20260506183730 | 74 | 285 | 1.0 | 2.0 | 0.00 | 0.00 | 0.00 | 35 | 1016.6 |
| 20260506182230 | 73 | 2 | 1.0 | 1.0 | 0.00 | 0.00 | 0.00 | 35 | 1016.9 |
| 20260506180728 | 72 | 1 | 1.0 | 3.0 | 0.00 | 0.00 | 0.00 | 34 | 1017.2 |
| 20260506175227 | 71 | 24 | 1.0 | 3.0 | 0.00 | 0.00 | 0.00 | 41 | 1017.2 |
| 20260506173724 | 69 | 26 | 1.0 | 3.0 | 0.00 | 0.00 | 0.00 | 40 | 1017.2 |
| 20260506172220 | 67 | 36 | 1.0 | 2.0 | 0.00 | 0.00 | 0.00 | 41 | 1017.5 |
| 20260506170719 | 65 | 30 | 0.0 | 2.0 | 0.00 | 0.00 | 0.00 | 41 | 1017.7 |
| 20260506165216 | 64 | 348 | 1.0 | 2.0 | 0.00 | 0.00 | 0.00 | 43 | 1017.9 |
| 20260506163713 | 62 | 41 | 0.0 | 1.0 | 0.00 | 0.00 | 0.00 | 44 | 1018.0 |
| 20260506162208 | 59 | 48 | 0.0 | 1.0 | 0.00 | 0.00 | 0.00 | 54 | 1018.3 |
| 20260506160706 | 57 | 60 | 0.0 | 1.0 | 0.00 | 0.00 | 0.00 | 61 | 1018.6 |
| 20260506155204 | 56 | 41 | 0.0 | 1.0 | 0.00 | 0.00 | 0.00 | 65 | 1018.8 |
| 20260506153311 | 54 | 86 | 1.0 | 1.0 | 0.00 | 0.00 | 0.00 | 66 | 1018.9 |
| 20260506151810 | 52 | 32 | 1.0 | 1.0 | 0.00 | 0.00 | 0.00 | 70 | 1019.1 |
| 20260506150306 | 54 | 59 | 0.0 | 0.0 | 0.00 | 0.00 | 0.00 | 68 | 1019.3 |
| 20260506144802 | 52 | 64 | 0.0 | 0.0 | 0.00 | 0.00 | 0.00 | 70 | 1019.4 |
| 20260506143259 | 49 | 57 | 0.0 | 0.0 | 0.00 | 0.00 | 0.00 | 78 | 1019.6 |
| 20260506141759 | 48 | 106 | 1.0 | 1.0 | 0.00 | 0.00 | 0.00 | 80 | 1019.4 |
| 20260506140257 | 46 | 67 | 0.0 | 1.0 | 0.00 | 0.00 | 0.00 | 85 | 1019.6 |
| 20260506134753 | 46 | 135 | 1.0 | 1.0 | 0.00 | 0.00 | 0.00 | 83 | 1019.5 |
| 20260506133249 | 46 | 67 | 1.0 | 1.0 | 0.00 | 0.00 | 0.00 | 84 | 1019.4 |
| 20260506131747 | 46 | 46 | 0.0 | 0.0 | 0.00 | 0.00 | 0.00 | 84 | 1019.4 |
| 20260506130242 | 46 | 46 | 0.0 | 1.0 | 0.00 | 0.00 | 0.00 | 86 | 1019.2 |
| 20260506124742 | 45 | 124 | 1.0 | 1.0 | 0.00 | 0.00 | 0.00 | 87 | 1019.0 |
| 20260506123241 | 45 | 33 | 0.0 | 1.0 | 0.00 | 0.00 | 0.00 | 87 | 1018.8 |
| 20260506121739 | 45 | 50 | 0.0 | 1.0 | 0.00 | 0.00 | 0.00 | 87 | 1018.7 |
| 20260506120236 | 46 | 15 | 1.0 | 1.0 | 0.00 | 0.00 | 0.00 | 84 | 1018.7 |
| 20260506114735 | 47 | 353 | 1.0 | 1.0 | 0.00 | 0.00 | 0.00 | 83 | 1018.5 |